Index of /wp-hr-content/uploads/2017/05/

NameLast ModifiedSize
UpParent Directory
FileANTI-TERRIORISM-PROGRAM-MANAGER.pdf2017-10-28 15:35 550k
FileASSISTANT-FIRE-CHIEF.pdf2017-10-28 15:35 96k
FileBLOOD-BANK-RECRUITER.pdf2017-10-28 15:35 119k
FileCHEMICAL-DEPENDENCY-TREATMENT-SPECIALIST-III-Dept.-DOA128-17.pdf2017-10-28 15:35 108k
FileCOMPUTER-OPERATOR-III-Open-DOA139-17.pdf2017-10-28 15:35 146k
FileDEPUTY-FIRE-CHIEF.pdf2017-10-28 15:35 97k
FileDEVELOPMENTAL-DISABILITY-AIDE-III-CLTA-DOA134-17.pdf2017-10-28 15:35 137k
FileELECTRICIAN-I-Open-DOA129-17.pdf2017-10-28 15:35 134k
FileELECTRICIAN-SUPERVISOR-Open-DOA130-17.pdf2017-10-28 15:35 147k
FileENGINEER-SUPERVISOR.pdf2025-05-01 03:36 129k
FileENVIRONMENTAL-HEALTH-SPECIALIST-III-Open-DOA131-17.pdf2017-10-28 15:35 159k
FileENVIRONMENTAL-TECHNICIAN-II-Open-DOA135-17.pdf2017-10-28 15:35 153k
FileFIRE-BATTALION-CHIEF.pdf2017-10-28 15:35 85k
FileFIRE-CAPTAIN.pdf2017-10-28 15:35 148k
FileFIRE-FIGHTER-I.pdf2017-10-28 15:35 94k
FileFIRE-SERVICE-SPECIALIST.pdf2017-10-28 15:35 108k
FileFIREFIGHTER-II.pdf2017-10-28 15:35 99k
FileFY18-PPO-1500-agreement-and-certificate.pdf2017-10-28 15:35 372k
FileFY18-RFP-002-Exhibit-Q-Reporting-Final-1.xlsx2017-10-28 15:35 31k
FileFY18-RFP-002-Exhibit-Q-Reporting-Final.xlsx2017-10-28 15:35 31k
FileFY18-RFP-002-Foster-Children-Agreement-and-Certificate-1.pdf2017-10-28 15:35 534k
FileFY18-RFP-002-Foster-Children-Agreement-and-Certificate.pdf2017-10-28 15:35 534k
FileFY18-RFP-002-HSA-2000-Agreement-and-Certificate-1.pdf2017-10-28 15:35 627k
FileFY18-RFP-002-HSA-2000-Agreement-and-Certificate.pdf2017-10-28 15:35 627k
FileFY18-RFP-002-PPO-1500-Agreement-and-Certificate-1.pdf2017-10-28 15:35 639k
FileFY18-RFP-002-PPO-1500-Agreement-and-Certificate.pdf2017-10-28 15:35 639k
FileFY18-RFP-002-Questionnaire-Final-1.xls2017-10-28 15:35 415k
FileFY18-RFP-002-Questionnaire-Final.xls2017-10-28 15:35 415k
FileFY18-RFP-002-RSP-Agreement-Part-1-of-2-1.pdf2017-10-28 15:35 279k
FileFY18-RFP-002-RSP-Agreement-Part-1-of-2.pdf2017-10-28 15:35 279k
FileFY18-RFP-002-RSP-Agreement-Part-2-of-2-1.pdf2017-10-28 15:35 312k
FileFY18-RFP-002-RSP-Agreement-Part-2-of-2.pdf2017-10-28 15:35 312k
FileFY18-RFP-Amendment-I.pdf2017-10-28 15:35 52k
FileFY18-RFP-DOA-HRD-RFP-GHI-18-002-1.pdf2017-10-28 15:35 4353k
FileFY18-RFP-DOA-HRD-RFP-GHI-18-002.pdf2017-10-28 15:35 4353k
FileFY18-RFP-Exhibit-Q-Reporting-final.xlsx2017-10-28 15:35 31k
FileFY18-RFP-foster-children-AGREEMENT-AND-CERTIFICATE.pdf2017-10-28 15:35 288k
FileFY18-RFP-HSA-2000-agreement-and-certificate.pdf2017-10-28 15:35 371k
FileFY18-RFP-Questionnaire-final.xls2017-10-28 15:35 415k
FileFY18-RSP-CERTIFICATE-Retiree-Supplement-Insurance-Agreement-s-Part-2.pdf2017-10-28 15:35 179k
FileGGCWA-2014-DOA-Policies-Procedures.pdf2017-10-28 15:35 523k
FileHISTORIC-PRESERVATION-SPECIALIST-II-Dept.-DOA146-17.pdf2017-10-28 15:35 110k
FileMANAGEMENT-ANALYST-IV-Open-DOA136-17.pdf2017-10-28 15:35 149k
FilePERSONNEL-OFFICER-Open-DOA140-17.pdf2017-10-28 15:35 106k
FilePLANNER-II-Open-DOA133-17.pdf2017-10-28 15:35 144k
FilePLANNING-TECHNICIAN-II-Open-DOA141-17.pdf2017-10-28 15:35 100k
FilePSYCHIATRIC-SOCIAL-WORKER-II-Open-DOA142-17.pdf2017-10-28 15:35 107k
FileRSP-Agreement-for-Retiree-Supplemental-Insurance-FY18-RFP-Part-1.pdf2017-10-28 15:35 127k
FileSECRETARY-II-TYPIST-Open-DOA145-17.pdf2017-10-28 15:35 121k
FileSECRETARY-TYPIST-I-Open-DOA132-17.pdf2017-10-28 15:35 149k
FileSTATISTICIAN-II-Open-DOA143-17.pdf2017-10-28 15:35 99k
FileTAX-ACCOUNTING-TECHNICIAN-I-Open-DOA138-17.pdf2017-10-28 15:35 144k
FileTAX-INVESTIGATOR-I-Gov.t-Wide-DOA144-17.pdf2017-10-28 15:35 109k
FileTransmittal-of-Plan-CWA-2014.pdf2017-10-28 15:35 5815k
FileYOUTH-SERVICE-WORKER-I.pdf2017-10-28 15:35 135k
FileYOUTH-SERVICE-WORKER-II.pdf2017-10-28 15:35 143k
Proudly Served by LiteSpeed Web Server at hr.doa.guam.gov Port 443